Time;durP1;ratioP1;P1;durP2;ratioP2;P2;SDS_P1;SDS_P2;PMS_P1;PMS_P2;Temp;Humidity;BMP_temperature;BMP_pressure;BME280_temperature;BME280_humidity;BME280_pressure;Samples;Min_cycle;Max_cycle;Signal;HPM_P1;HPM_P2
2023/05/04 00:00:10;;;;;;;5.33;3.60;;;9.10;18.50;;;;;;5008593;28;20275;-75
2023/05/04 00:02:35;;;;;;;4.80;3.13;;;9.10;1.00;;;;;;5008681;28;20683;-75
2023/05/04 00:05:03;;;;;;;8.73;3.63;;;9.00;1.00;;;;;;5008653;28;20169;-75
2023/05/04 00:07:28;;;;;;;5.70;3.33;;;9.00;1.00;;;;;;5009732;28;20217;-75
2023/05/04 00:09:54;;;;;;;8.70;3.67;;;8.90;1.00;;;;;;5010214;28;20200;-74
2023/05/04 00:12:20;;;;;;;7.57;3.83;;;8.90;1.00;;;;;;5024777;28;20240;-75
2023/05/04 00:14:45;;;;;;;4.10;3.37;;;8.90;1.00;;;;;;5024975;28;20271;-75
2023/05/04 00:17:11;;;;;;;4.37;3.63;;;8.80;1.00;;;;;;5009650;28;20222;-75
2023/05/04 00:19:39;;;;;;;5.53;3.20;;;8.80;99.90;;;;;;5024813;28;20219;-75
2023/05/04 00:22:05;;;;;;;7.17;3.80;;;8.70;1.00;;;;;;5009641;28;20276;-75
2023/05/04 00:24:30;;;;;;;6.57;3.73;;;8.70;1.00;;;;;;5024837;28;20759;-75
2023/05/04 00:26:56;;;;;;;6.80;3.70;;;8.70;1.00;;;;;;5008268;28;20193;-75
2023/05/04 00:29:21;;;;;;;8.87;3.67;;;8.70;1.00;;;;;;5024622;28;20644;-75
2023/05/04 00:31:47;;;;;;;14.60;3.97;;;8.70;1.00;;;;;;5009730;28;20624;-75
2023/05/04 00:34:14;;;;;;;9.93;3.30;;;8.60;1.00;;;;;;5009478;28;20177;-75
2023/05/04 00:36:41;;;;;;;7.93;3.13;;;8.60;1.00;;;;;;5008132;28;20706;-75
2023/05/04 00:39:07;;;;;;;4.13;3.33;;;8.60;1.00;;;;;;5009765;28;20185;-75
2023/05/04 00:41:32;;;;;;;7.30;3.50;;;8.50;1.00;;;;;;5024641;28;20173;-76
2023/05/04 00:43:58;;;;;;;6.50;3.87;;;8.50;1.00;;;;;;5024451;28;20208;-75
2023/05/04 00:46:24;;;;;;;8.20;3.43;;;8.40;1.00;;;;;;5009262;28;20568;-75
2023/05/04 00:48:51;;;;;;;8.43;3.73;;;8.40;1.00;;;;;;5009368;28;20178;-75
2023/05/04 00:51:19;;;;;;;8.50;3.73;;;8.40;1.00;;;;;;5024446;28;20708;-75
2023/05/04 00:53:46;;;;;;;5.03;3.30;;;8.30;1.00;;;;;;5011380;28;20177;-75
2023/05/04 00:56:13;;;;;;;5.23;3.40;;;8.30;1.00;;;;;;5011456;28;20267;-75
2023/05/04 00:58:38;;;;;;;6.53;3.40;;;8.30;1.00;;;;;;5012582;28;20677;-74
2023/05/04 01:01:04;;;;;;;6.50;3.67;;;8.30;1.00;;;;;;5012675;28;20283;-75
2023/05/04 01:03:30;;;;;;;9.23;3.50;;;8.20;1.00;;;;;;5012544;28;20647;-75
2023/05/04 01:06:23;;;;;;;6.37;3.90;;;8.20;1.00;;;;;;5027790;28;20177;-75
2023/05/04 01:09:02;;;;;;;5.17;3.57;;;8.10;1.00;;;;;;5012671;28;20168;-75
2023/05/04 01:11:53;;;;;;;6.53;3.43;;;8.10;1.00;;;;;;5011900;28;20214;-75
2023/05/04 01:14:21;;;;;;;5.73;3.63;;;8.00;1.00;;;;;;5028015;28;20170;-75
2023/05/04 01:16:47;;;;;;;8.03;3.90;;;8.00;1.00;;;;;;5011053;28;20686;-75
2023/05/04 01:19:12;;;;;;;6.30;3.20;;;8.00;1.00;;;;;;5011105;28;20181;-75
2023/05/04 01:21:38;;;;;;;5.63;3.43;;;7.90;1.00;;;;;;5012355;28;20196;-75
2023/05/04 01:24:05;;;;;;;5.30;3.80;;;7.90;1.00;;;;;;5012228;28;20517;-75
2023/05/04 01:26:36;;;;;;;8.80;3.93;;;7.80;1.00;;;;;;5027318;28;20178;-75
2023/05/04 01:29:12;;;;;;;6.80;3.80;;;7.80;1.00;;;;;;5012263;28;20157;-75
2023/05/04 01:31:39;;;;;;;7.57;3.80;;;7.80;1.00;;;;;;5012468;28;20192;-75
2023/05/04 01:34:06;;;;;;;6.57;3.70;;;7.70;1.00;;;;;;5027386;28;20192;-75
2023/05/04 01:36:32;;;;;;;4.30;3.50;;;7.70;1.00;;;;;;5012046;28;20177;-75
2023/05/04 01:38:58;;;;;;;6.27;3.33;;;7.70;1.00;;;;;;5012391;28;20542;-75
2023/05/04 01:41:25;;;;;;;11.57;4.20;;;7.60;1.00;;;;;;5010807;28;20254;-75
2023/05/04 01:43:53;;;;;;;8.67;3.63;;;7.70;1.00;;;;;;5010661;28;20254;-75
2023/05/04 01:46:18;;;;;;;5.33;3.57;;;7.60;1.00;;;;;;5012150;28;20169;-75
2023/05/04 01:48:44;;;;;;;4.93;3.63;;;7.60;1.00;;;;;;5011920;28;20177;-75
2023/05/04 01:51:09;;;;;;;7.23;3.33;;;7.50;1.00;;;;;;5012086;28;20180;-75
2023/05/04 01:53:35;;;;;;;9.90;4.10;;;7.50;1.00;;;;;;5011972;28;20177;-75
2023/05/04 01:56:00;;;;;;;4.87;3.23;;;7.40;1.00;;;;;;5026960;28;20192;-75
2023/05/04 01:58:26;;;;;;;7.10;3.77;;;7.40;1.00;;;;;;5026894;28;20217;-75
2023/05/04 02:00:51;;;;;;;6.57;3.80;;;7.40;1.00;;;;;;5011734;28;20555;-75
2023/05/04 02:03:17;;;;;;;7.17;4.20;;;7.30;1.00;;;;;;5011679;28;20223;-75
2023/05/04 02:05:42;;;;;;;6.30;3.70;;;7.30;1.00;;;;;;5011275;28;20204;-75
2023/05/04 02:08:08;;;;;;;5.07;3.40;;;7.30;1.00;;;;;;5026740;28;20200;-74
2023/05/04 02:10:33;;;;;;;5.60;3.80;;;7.30;1.00;;;;;;5026767;28;20173;-75
2023/05/04 02:13:00;;;;;;;4.90;3.50;;;7.30;1.00;;;;;;5011514;28;20267;-75
2023/05/04 02:15:25;;;;;;;6.40;3.57;;;7.20;1.00;;;;;;5011582;28;20185;-75
2023/05/04 02:17:51;;;;;;;6.80;3.87;;;7.20;1.00;;;;;;5010323;28;20614;-75
2023/05/04 02:20:16;;;;;;;7.17;4.70;;;7.20;1.00;;;;;;5011705;28;20181;-75
2023/05/04 02:22:42;;;;;;;5.60;3.73;;;7.10;1.00;;;;;;5011338;28;20180;-75
2023/05/04 02:25:07;;;;;;;5.43;3.93;;;7.10;1.00;;;;;;5011431;28;20548;-75
2023/05/04 02:27:33;;;;;;;6.53;4.43;;;7.10;1.00;;;;;;5011528;28;20688;-75
2023/05/04 02:29:59;;;;;;;6.33;4.10;;;7.10;1.10;;;;;;5026389;28;20184;-75
2023/05/04 02:32:25;;;;;;;4.87;3.33;;;7.10;8.20;;;;;;5011280;28;20329;-75
2023/05/04 02:34:52;;;;;;;5.03;3.33;;;7.00;28.30;;;;;;5011438;28;20181;-75
2023/05/04 02:37:18;;;;;;;7.60;3.67;;;7.00;48.30;;;;;;5011398;28;20222;-75
2023/05/04 02:39:44;;;;;;;7.50;3.57;;;7.00;45.10;;;;;;5011152;28;20238;-75
2023/05/04 02:42:09;;;;;;;10.17;3.90;;;6.90;67.50;;;;;;5026517;28;20645;-74
2023/05/04 02:44:35;;;;;;;9.37;4.07;;;6.90;92.10;;;;;;5011127;28;20205;-75
2023/05/04 02:47:01;;;;;;;6.17;4.03;;;6.90;99.90;;;;;;5026407;28;20504;-75
2023/05/04 02:49:26;;;;;;;7.80;3.70;;;6.90;99.90;;;;;;5011079;28;20161;-74
2023/05/04 02:51:52;;;;;;;4.90;3.63;;;6.90;99.90;;;;;;5011027;28;20180;-75
2023/05/04 02:54:17;;;;;;;5.57;3.53;;;6.80;99.90;;;;;;5011174;28;20649;-75
2023/05/04 02:56:43;;;;;;;7.03;3.83;;;6.80;99.90;;;;;;5010883;28;20220;-74
2023/05/04 02:59:08;;;;;;;6.33;3.93;;;6.80;99.90;;;;;;5009555;28;20272;-75
2023/05/04 03:01:34;;;;;;;5.20;3.43;;;6.80;99.90;;;;;;5010855;28;20181;-75
2023/05/04 03:04:00;;;;;;;5.70;3.63;;;6.80;99.90;;;;;;5010710;28;20197;-74
2023/05/04 03:06:25;;;;;;;7.03;3.43;;;6.70;99.90;;;;;;5010665;28;20192;-75
2023/05/04 03:08:51;;;;;;;5.30;3.80;;;6.70;99.90;;;;;;5010811;28;20173;-74
2023/05/04 03:11:16;;;;;;;10.67;4.23;;;6.70;99.90;;;;;;5025843;28;20174;-75
2023/05/04 03:13:42;;;;;;;7.10;3.70;;;6.70;99.90;;;;;;5010562;28;20213;-74
2023/05/04 03:16:07;;;;;;;5.90;3.97;;;6.60;99.90;;;;;;5008957;28;20188;-75
2023/05/04 03:18:33;;;;;;;5.13;3.10;;;6.60;99.90;;;;;;5010443;28;20207;-75
2023/05/04 03:20:58;;;;;;;6.27;3.83;;;6.50;99.90;;;;;;5010600;28;20533;-75
2023/05/04 03:23:24;;;;;;;10.93;3.90;;;6.50;99.90;;;;;;5010245;28;20667;-76
2023/05/04 03:25:50;;;;;;;8.00;4.20;;;6.50;99.90;;;;;;5010526;28;20544;-75
2023/05/04 03:28:15;;;;;;;5.70;3.97;;;6.40;99.90;;;;;;5010383;28;20712;-75
2023/05/04 03:30:41;;;;;;;8.30;4.10;;;6.40;99.90;;;;;;5010412;28;20175;-75
2023/05/04 03:33:06;;;;;;;5.87;4.00;;;6.40;99.90;;;;;;5010407;28;20211;-75
2023/05/04 03:35:32;;;;;;;5.60;3.80;;;6.40;99.90;;;;;;5010356;28;20205;-75
2023/05/04 03:37:58;;;;;;;6.37;4.33;;;6.30;99.90;;;;;;5010442;28;20195;-74
2023/05/04 03:40:23;;;;;;;9.23;4.30;;;6.30;99.90;;;;;;5010293;28;20218;-75
2023/05/04 03:42:51;;;;;;;6.77;4.20;;;6.30;99.90;;;;;;5010219;28;20177;-75
2023/05/04 03:45:16;;;;;;;5.73;4.50;;;6.30;99.90;;;;;;5009077;28;20267;-75
2023/05/04 03:47:42;;;;;;;7.27;4.00;;;6.30;99.90;;;;;;5010138;28;20298;-75
2023/05/04 03:50:08;;;;;;;4.77;3.53;;;6.30;99.90;;;;;;5010390;28;20173;-73
2023/05/04 03:52:34;;;;;;;6.83;3.93;;;6.30;99.90;;;;;;5009004;28;20173;-75
2023/05/04 03:55:00;;;;;;;9.40;4.80;;;6.30;99.90;;;;;;5010082;28;20173;-75
2023/05/04 03:57:25;;;;;;;9.23;5.00;;;6.30;99.90;;;;;;5008763;28;20207;-74
2023/05/04 03:59:51;;;;;;;6.40;3.90;;;6.30;99.90;;;;;;5010156;28;20173;-75
2023/05/04 04:02:16;;;;;;;6.60;4.30;;;6.20;99.90;;;;;;5008785;28;20184;-75
2023/05/04 04:04:42;;;;;;;6.57;4.20;;;6.20;99.90;;;;;;5010109;28;20244;-75
2023/05/04 04:07:07;;;;;;;7.73;4.30;;;6.20;99.90;;;;;;5009806;28;20749;-75
2023/05/04 04:09:33;;;;;;;7.70;4.50;;;6.20;99.90;;;;;;5010283;28;20656;-74
2023/05/04 04:11:58;;;;;;;7.23;4.33;;;6.20;99.90;;;;;;5010022;28;20223;-75
2023/05/04 04:14:25;;;;;;;6.00;4.50;;;6.10;99.90;;;;;;5008540;28;20173;-75
2023/05/04 04:16:50;;;;;;;5.83;4.40;;;6.10;99.90;;;;;;5008426;28;20199;-75
2023/05/04 04:19:16;;;;;;;7.10;4.57;;;6.10;99.90;;;;;;5009897;28;20279;-75
2023/05/04 04:21:42;;;;;;;5.87;4.37;;;6.10;99.90;;;;;;5009714;28;20176;-75
2023/05/04 04:24:07;;;;;;;11.10;4.67;;;6.10;99.90;;;;;;5009541;28;20212;-75
2023/05/04 04:26:33;;;;;;;7.87;4.40;;;6.10;99.90;;;;;;5009499;28;20169;-75
2023/05/04 04:28:58;;;;;;;6.70;3.87;;;6.10;99.90;;;;;;5014562;28;20176;-75
2023/05/04 04:31:24;;;;;;;5.33;4.40;;;6.10;99.90;;;;;;5015809;28;20628;-74
2023/05/04 04:33:50;;;;;;;7.97;4.37;;;6.10;99.90;;;;;;5016087;28;20259;-75
2023/05/04 04:36:17;;;;;;;5.27;4.40;;;6.10;99.90;;;;;;5016502;28;20169;-74
2023/05/04 04:38:43;;;;;;;6.63;4.20;;;6.10;99.90;;;;;;5014585;28;20200;-75
2023/05/04 04:41:08;;;;;;;6.73;4.93;;;6.10;99.90;;;;;;5015951;28;20177;-75
2023/05/04 04:43:34;;;;;;;4.90;4.23;;;6.10;99.90;;;;;;5014607;28;20205;-75
2023/05/04 04:46:01;;;;;;;6.93;3.60;;;6.10;99.90;;;;;;5015855;28;20172;-75
2023/05/04 04:48:26;;;;;;;6.80;4.00;;;6.10;99.90;;;;;;5014429;28;20219;-75
2023/05/04 04:50:52;;;;;;;10.07;4.53;;;6.10;99.90;;;;;;5016073;28;20640;-74
2023/05/04 04:53:18;;;;;;;4.23;3.83;;;6.10;99.90;;;;;;5014644;28;20183;-76
2023/05/04 04:55:44;;;;;;;8.30;4.30;;;6.10;99.90;;;;;;5015923;28;20548;-75
2023/05/04 04:58:09;;;;;;;7.30;4.37;;;6.10;99.90;;;;;;5015741;28;20197;-75
2023/05/04 05:00:35;;;;;;;7.30;4.63;;;6.10;99.90;;;;;;5015768;28;20259;-76
2023/05/04 05:03:02;;;;;;;7.60;4.23;;;6.10;99.90;;;;;;5015580;28;20169;-76
2023/05/04 05:05:28;;;;;;;7.47;4.60;;;6.20;99.90;;;;;;5015757;28;20190;-74
2023/05/04 05:07:53;;;;;;;5.40;4.20;;;6.20;99.90;;;;;;5014312;28;20193;-75
2023/05/04 05:10:20;;;;;;;7.83;3.77;;;6.20;99.90;;;;;;5014478;28;20177;-75
2023/05/04 05:12:46;;;;;;;5.13;4.40;;;6.20;99.90;;;;;;5015689;28;20296;-76
2023/05/04 05:15:11;;;;;;;6.60;4.10;;;6.30;99.90;;;;;;5015790;28;20204;-75
2023/05/04 05:17:38;;;;;;;9.90;4.40;;;6.30;99.90;;;;;;5015560;28;20228;-75
2023/05/04 05:20:09;;;;;;;8.20;4.10;;;6.40;99.90;;;;;;5015666;28;20177;-74
2023/05/04 05:22:35;;;;;;;9.13;4.80;;;6.40;99.90;;;;;;5014252;28;20173;-75
2023/05/04 05:25:01;;;;;;;6.20;4.23;;;6.40;99.90;;;;;;5015489;28;20660;-74
2023/05/04 05:27:28;;;;;;;6.70;4.20;;;6.50;99.90;;;;;;5015522;28;20253;-75
2023/05/04 05:29:53;;;;;;;9.17;5.47;;;6.60;99.90;;;;;;5014336;28;20169;-75
2023/05/04 05:32:19;;;;;;;8.00;5.13;;;6.70;99.90;;;;;;5015732;28;20213;-75
2023/05/04 05:34:44;;;;;;;7.20;4.17;;;6.70;99.90;;;;;;5015412;28;20173;-74
2023/05/04 05:37:10;;;;;;;6.87;4.63;;;6.80;99.90;;;;;;5015344;28;20679;-75
2023/05/04 05:39:36;;;;;;;7.03;4.87;;;7.00;99.90;;;;;;5011758;28;20178;-74
2023/05/04 05:42:02;;;;;;;5.77;4.63;;;7.00;99.90;;;;;;5010794;28;20482;-74
2023/05/04 05:44:28;;;;;;;5.27;4.40;;;7.10;99.90;;;;;;5012206;28;20605;-74
2023/05/04 05:46:54;;;;;;;7.20;4.90;;;7.20;99.90;;;;;;5011949;28;20193;-74
2023/05/04 05:49:20;;;;;;;5.83;4.80;;;7.30;99.90;;;;;;5012075;28;20663;-74
2023/05/04 05:51:46;;;;;;;7.70;4.70;;;7.40;99.90;;;;;;5012232;28;20173;-74
2023/05/04 05:54:11;;;;;;;10.37;5.03;;;7.50;99.90;;;;;;5011936;28;20718;-74
2023/05/04 05:56:37;;;;;;;11.37;5.83;;;7.60;99.90;;;;;;5010488;28;20177;-74
2023/05/04 05:59:03;;;;;;;9.83;5.80;;;7.70;99.90;;;;;;5011812;28;20181;-75
2023/05/04 06:01:28;;;;;;;10.63;5.17;;;7.80;99.90;;;;;;5011727;28;20203;-74
2023/05/04 06:03:54;;;;;;;8.73;5.37;;;7.80;99.90;;;;;;5010366;28;20733;-74
2023/05/04 06:06:20;;;;;;;8.30;5.07;;;8.00;99.90;;;;;;5012163;28;20214;-74
2023/05/04 06:08:45;;;;;;;7.77;4.43;;;8.10;99.90;;;;;;5011543;28;20663;-74
2023/05/04 06:11:11;;;;;;;7.50;4.93;;;8.20;99.90;;;;;;5010396;28;20268;-74
2023/05/04 06:13:36;;;;;;;7.20;4.97;;;8.30;99.90;;;;;;5011857;28;20611;-75
2023/05/04 06:16:02;;;;;;;7.30;4.80;;;8.40;99.90;;;;;;5011859;28;20182;-74
2023/05/04 06:18:28;;;;;;;9.50;5.50;;;8.50;99.90;;;;;;5010107;28;20330;-74
2023/05/04 06:20:58;;;;;;;7.70;5.00;;;8.60;99.90;;;;;;5011518;28;20208;-74
2023/05/04 06:23:25;;;;;;;9.97;5.13;;;8.70;99.90;;;;;;5011543;28;20200;-75
2023/05/04 06:25:50;;;;;;;6.33;4.47;;;8.80;99.90;;;;;;5010349;28;20196;-75
2023/05/04 06:28:16;;;;;;;7.57;4.27;;;8.90;57.40;;;;;;5011515;28;20684;-74
2023/05/04 06:30:43;;;;;;;5.57;3.83;;;8.90;1.00;;;;;;5011419;28;20181;-76
2023/05/04 06:33:09;;;;;;;5.63;3.87;;;9.10;1.00;;;;;;5011603;28;20169;-73
2023/05/04 06:35:34;;;;;;;6.57;4.07;;;9.10;1.00;;;;;;5011478;28;20188;-74
2023/05/04 06:38:00;;;;;;;7.77;4.33;;;9.20;1.00;;;;;;5013984;28;20196;-74
2023/05/04 06:40:26;;;;;;;5.77;3.90;;;9.40;1.00;;;;;;5009915;28;20588;-74
2023/05/04 06:42:51;;;;;;;5.83;4.23;;;9.40;1.00;;;;;;5026356;28;20173;-74
2023/05/04 06:45:17;;;;;;;14.90;4.87;;;9.50;1.00;;;;;;5011105;28;20166;-74
2023/05/04 06:47:42;;;;;;;5.43;3.80;;;9.60;1.00;;;;;;5011092;28;20272;-74
2023/05/04 06:50:09;;;;;;;6.27;3.93;;;9.80;1.00;;;;;;5011001;28;20200;-74
2023/05/04 06:52:38;;;;;;;6.87;3.67;;;9.90;1.00;;;;;;5010828;28;20182;-74
2023/05/04 06:55:05;;;;;;;6.80;3.67;;;10.00;99.90;;;;;;5026261;28;20614;-74
2023/05/04 06:57:31;;;;;;;4.93;3.70;;;10.10;99.90;;;;;;5025886;28;20196;-74
2023/05/04 06:59:57;;;;;;;6.27;3.80;;;10.30;44.40;;;;;;5026065;28;20245;-74
2023/05/04 07:02:22;;;;;;;5.10;3.23;;;10.50;1.00;;;;;;5026068;28;20279;-74
2023/05/04 07:04:48;;;;;;;4.40;3.13;;;10.70;1.00;;;;;;5026000;28;20201;-74
2023/05/04 07:07:14;;;;;;;4.73;3.10;;;10.80;1.00;;;;;;5011033;28;20189;-75
2023/05/04 07:09:41;;;;;;;6.13;3.40;;;11.00;99.90;;;;;;5010775;28;20230;-75
2023/05/04 07:12:06;;;;;;;4.60;3.20;;;11.10;24.20;;;;;;5010600;28;20182;-75
2023/05/04 07:14:32;;;;;;;3.70;2.73;;;11.30;47.00;;;;;;5010814;28;20540;-74
2023/05/04 07:16:59;;;;;;;8.10;3.33;;;11.50;23.60;;;;;;5025773;28;20236;-74
2023/05/04 07:19:25;;;;;;;4.37;3.03;;;11.60;1.00;;;;;;5010824;28;20177;-74
2023/05/04 07:21:51;;;;;;;10.30;3.33;;;11.70;1.00;;;;;;5010589;28;20237;-74
2023/05/04 07:24:16;;;;;;;9.60;3.60;;;11.80;1.00;;;;;;5010464;28;20246;-73
2023/05/04 07:26:42;;;;;;;7.73;2.97;;;11.90;99.90;;;;;;5010389;28;20568;-74
2023/05/04 07:29:08;;;;;;;4.17;2.50;;;12.00;98.10;;;;;;5010606;28;20223;-74
2023/05/04 07:31:34;;;;;;;5.43;3.00;;;12.10;1.00;;;;;;5010486;28;20251;-74
2023/05/04 07:34:00;;;;;;;7.03;2.73;;;12.30;1.00;;;;;;5025573;28;20267;-74
2023/05/04 07:36:26;;;;;;;3.37;2.70;;;12.40;1.00;;;;;;5010325;28;20256;-74
2023/05/04 07:38:52;;;;;;;3.93;2.50;;;12.60;99.90;;;;;;5010307;28;20727;-74
2023/05/04 07:41:18;;;;;;;4.33;2.30;;;12.70;99.90;;;;;;5010502;28;20225;-74
2023/05/04 07:43:44;;;;;;;4.23;2.57;;;13.00;1.00;;;;;;5025107;28;20734;-74
2023/05/04 07:46:11;;;;;;;7.03;2.40;;;13.00;1.00;;;;;;5010200;28;20181;-74
2023/05/04 07:48:37;;;;;;;8.47;2.53;;;13.10;1.00;;;;;;5025269;28;20219;-74
2023/05/04 07:51:02;;;;;;;6.30;3.00;;;13.20;39.70;;;;;;5025528;28;20617;-74
2023/05/04 07:53:28;;;;;;;4.43;2.27;;;13.30;1.00;;;;;;5025297;28;20173;-74
2023/05/04 07:55:56;;;;;;;4.97;2.13;;;13.40;99.90;;;;;;5010338;28;20359;-74
2023/05/04 07:58:22;;;;;;;8.93;2.60;;;13.60;99.90;;;;;;5025272;28;20189;-74
2023/05/04 08:00:48;;;;;;;5.53;2.70;;;13.70;1.00;;;;;;5025131;28;20181;-74
2023/05/04 08:03:13;;;;;;;6.47;2.67;;;13.90;1.00;;;;;;5024475;28;20207;-74
2023/05/04 08:05:39;;;;;;;7.80;2.63;;;14.10;1.00;;;;;;5009940;28;20169;-75
2023/05/04 08:08:05;;;;;;;4.93;2.37;;;14.20;1.00;;;;;;5009837;28;20228;-74
2023/05/04 08:10:34;;;;;;;6.80;3.00;;;14.20;1.00;;;;;;5025027;28;20173;-74
2023/05/04 08:13:00;;;;;;;5.10;2.67;;;14.40;1.00;;;;;;5009797;28;20177;-74
2023/05/04 08:15:26;;;;;;;4.73;2.20;;;14.50;1.00;;;;;;5009921;28;20173;-74
2023/05/04 08:17:52;;;;;;;3.53;2.20;;;14.50;1.00;;;;;;5009706;28;20288;-74
2023/05/04 08:20:17;;;;;;;5.13;2.40;;;14.70;1.00;;;;;;5009732;28;20169;-74
2023/05/04 08:22:43;;;;;;;6.13;2.50;;;14.80;1.00;;;;;;5024918;28;20178;-74
2023/05/04 08:25:08;;;;;;;9.57;2.83;;;14.90;99.90;;;;;;5024722;28;20699;-74
2023/05/04 08:27:34;;;;;;;7.13;2.50;;;15.00;99.90;;;;;;5025305;28;20588;-74
2023/05/04 08:29:59;;;;;;;7.47;2.63;;;15.20;99.90;;;;;;5009618;28;20169;-75
2023/05/04 08:32:25;;;;;;;5.63;2.97;;;15.30;1.00;;;;;;5009650;28;20251;-73
2023/05/04 08:34:51;;;;;;;5.03;2.17;;;15.30;1.00;;;;;;5024863;28;20643;-74
2023/05/04 08:37:16;;;;;;;3.37;2.30;;;15.40;1.00;;;;;;5009383;28;20205;-74
2023/05/04 08:39:42;;;;;;;6.03;2.70;;;15.50;51.40;;;;;;5009554;28;20173;-74
2023/05/04 08:42:08;;;;;;;4.87;2.57;;;15.60;99.90;;;;;;5024632;28;20598;-74
2023/05/04 08:44:34;;;;;;;6.70;2.67;;;15.70;22.10;;;;;;5024494;28;20223;-74
2023/05/04 08:47:03;;;;;;;3.70;2.60;;;15.80;28.10;;;;;;5009341;28;20599;-74
2023/05/04 08:49:29;;;;;;;3.47;2.73;;;15.90;1.00;;;;;;5024503;28;20637;-74
2023/05/04 08:51:56;;;;;;;4.67;2.57;;;15.80;1.00;;;;;;5009359;28;20657;-75
2023/05/04 08:54:22;;;;;;;3.50;2.67;;;16.00;1.00;;;;;;5009293;28;20176;-74
2023/05/04 08:56:50;;;;;;;5.50;2.77;;;16.10;1.00;;;;;;5009446;28;20242;-74
2023/05/04 08:59:20;;;;;;;4.73;2.20;;;16.20;1.00;;;;;;5009353;28;20582;-74
2023/05/04 09:01:53;;;;;;;4.10;2.30;;;16.30;1.00;;;;;;5009324;28;20180;-74
2023/05/04 09:04:19;;;;;;;4.93;2.07;;;16.40;1.00;;;;;;5009150;28;20732;-74
2023/05/04 09:06:46;;;;;;;5.70;2.47;;;16.50;1.00;;;;;;5009621;28;20200;-75
2023/05/04 09:09:12;;;;;;;6.80;3.10;;;16.60;99.90;;;;;;5009193;28;20640;-74
2023/05/04 09:11:38;;;;;;;3.90;3.00;;;16.70;99.90;;;;;;5008980;28;20700;-75
2023/05/04 09:14:04;;;;;;;8.87;2.77;;;16.70;1.00;;;;;;5009340;28;20250;-74
2023/05/04 09:16:34;;;;;;;4.90;2.47;;;16.90;99.90;;;;;;5012097;28;20171;-74
2023/05/04 09:19:01;;;;;;;2.63;2.40;;;16.80;99.90;;;;;;5012762;28;20240;-75
2023/05/04 09:21:30;;;;;;;4.63;2.80;;;17.00;99.90;;;;;;5012478;28;20184;-75
2023/05/04 09:23:56;;;;;;;3.47;2.70;;;17.10;99.90;;;;;;5012393;28;20197;-75
2023/05/04 09:26:32;;;;;;;3.93;2.33;;;17.10;99.90;;;;;;5027827;28;20176;-75
2023/05/04 09:29:14;;;;;;;3.90;3.00;;;17.20;99.90;;;;;;5012289;28;20161;-75
2023/05/04 09:31:48;;;;;;;3.03;2.40;;;17.20;52.00;;;;;;5028511;28;20512;-75
2023/05/04 09:34:14;;;;;;;3.87;2.70;;;17.40;1.00;;;;;;5027445;28;20184;-75
2023/05/04 09:36:41;;;;;;;5.67;2.60;;;17.60;1.00;;;;;;5012332;28;20173;-76
2023/05/04 09:39:14;;;;;;;4.43;2.93;;;17.70;1.00;;;;;;5027373;28;20554;-75
2023/05/04 09:41:42;;;;;;;2.93;2.10;;;17.80;1.00;;;;;;5012135;28;20185;-74
2023/05/04 09:44:21;;;;;;;5.30;2.90;;;17.90;1.00;;;;;;5011978;28;20290;-76
2023/05/04 09:46:54;;;;;;;4.20;2.60;;;18.00;1.00;;;;;;5027170;28;20193;-75
2023/05/04 09:49:30;;;;;;;4.77;2.50;;;18.00;1.00;;;;;;5011995;28;20516;-76
2023/05/04 09:51:58;;;;;;;3.17;2.47;;;18.10;1.00;;;;;;5027199;28;20173;-76
2023/05/04 09:54:25;;;;;;;3.27;2.63;;;18.10;1.00;;;;;;5027121;28;20268;-75
2023/05/04 09:56:55;;;;;;;4.00;2.67;;;18.20;99.90;;;;;;5012102;28;20193;-75
2023/05/04 09:59:25;;;;;;;4.20;2.80;;;18.30;1.00;;;;;;5012059;28;20196;-75
2023/05/04 10:01:51;;;;;;;3.13;2.30;;;18.40;99.90;;;;;;5011836;28;20173;-75
2023/05/04 10:04:17;;;;;;;3.93;2.50;;;18.50;1.00;;;;;;5011666;28;20211;-77
2023/05/04 10:06:43;;;;;;;3.60;2.50;;;18.60;1.00;;;;;;5026925;28;20208;-77
2023/05/04 10:09:10;;;;;;;4.90;3.37;;;18.70;99.90;;;;;;5026814;28;20174;-76
2023/05/04 10:11:36;;;;;;;3.27;2.40;;;18.70;69.50;;;;;;5011556;28;20172;-76
2023/05/04 10:14:02;;;;;;;6.60;2.60;;;18.80;99.90;;;;;;5011896;28;20256;-76
2023/05/04 10:16:45;;;;;;;4.97;2.90;;;18.90;99.90;;;;;;5011858;28;20205;-77
2023/05/04 10:19:30;;;;;;;6.20;2.87;;;18.90;1.00;;;;;;5026709;28;20598;-77
2023/05/04 10:22:14;;;;;;;5.07;2.30;;;19.00;1.00;;;;;;5011820;28;20169;-77
2023/05/04 10:24:52;;;;;;;3.67;2.27;;;19.10;99.90;;;;;;5026631;28;20208;-77
2023/05/04 10:27:35;;;;;;;3.40;2.50;;;19.20;99.90;;;;;;5011130;28;20191;-77
2023/05/04 10:30:02;;;;;;;14.17;2.80;;;19.20;97.40;;;;;;5010140;28;20175;-77
2023/05/04 10:32:28;;;;;;;3.73;2.70;;;19.30;99.90;;;;;;5011428;28;20264;-77
2023/05/04 10:35:06;;;;;;;3.27;2.60;;;19.40;99.90;;;;;;5011403;28;20700;-77
2023/05/04 10:37:32;;;;;;;3.40;2.70;;;19.50;99.90;;;;;;5011279;28;20672;-77
2023/05/04 10:39:57;;;;;;;2.93;2.47;;;19.50;99.90;;;;;;5011240;28;20177;-77
2023/05/04 10:42:23;;;;;;;3.23;2.40;;;19.50;99.90;;;;;;5011397;28;20207;-77
2023/05/04 10:44:54;;;;;;;3.27;2.40;;;19.60;92.70;;;;;;5011142;28;20204;-77
2023/05/04 10:47:31;;;;;;;2.43;2.23;;;19.70;1.00;;;;;;5026943;28;20205;-77
2023/05/04 10:50:09;;;;;;;3.10;2.40;;;19.70;1.00;;;;;;5026312;28;20227;-76
2023/05/04 10:52:52;;;;;;;6.87;2.43;;;19.80;1.00;;;;;;5026230;28;20254;-77
2023/05/04 10:55:19;;;;;;;3.17;2.30;;;19.90;1.00;;;;;;5011096;28;20241;-77
2023/05/04 10:57:55;;;;;;;5.67;2.13;;;20.00;1.00;;;;;;5011008;28;20320;-77
2023/05/04 11:00:23;;;;;;;3.10;2.50;;;20.00;1.00;;;;;;5011033;28;20303;-77
2023/05/04 11:02:49;;;;;;;4.60;2.60;;;20.10;1.00;;;;;;5010920;28;20173;-78
2023/05/04 11:05:18;;;;;;;4.97;2.73;;;20.10;1.00;;;;;;5010860;28;20552;-77
2023/05/04 11:07:45;;;;;;;6.53;2.27;;;20.20;1.00;;;;;;5010908;28;20199;-77
2023/05/04 11:10:21;;;;;;;3.80;2.17;;;20.30;99.90;;;;;;5010936;28;20272;-77
2023/05/04 11:12:47;;;;;;;4.13;2.03;;;20.30;1.00;;;;;;5026132;28;20605;-77
2023/05/04 11:15:13;;;;;;;2.97;1.60;;;20.40;1.00;;;;;;5010776;28;20181;-77
2023/05/04 11:17:50;;;;;;;3.10;2.00;;;20.50;99.90;;;;;;5010960;28;20564;-78
2023/05/04 11:20:22;;;;;;;3.87;2.10;;;20.50;99.90;;;;;;5011366;28;20540;-78
2023/05/04 11:22:49;;;;;;;4.87;1.90;;;20.50;99.90;;;;;;5010984;28;20503;-77
2023/05/04 11:25:15;;;;;;;5.27;2.20;;;20.60;99.90;;;;;;5026589;28;20204;-80
2023/05/04 11:27:42;;;;;;;3.10;2.07;;;20.60;99.90;;;;;;5026027;28;20249;-78
2023/05/04 11:30:08;;;;;;;5.07;1.60;;;20.60;99.90;;;;;;5026034;28;20177;-77
2023/05/04 11:32:35;;;;;;;3.93;2.00;;;20.60;99.90;;;;;;5026308;28;20181;-79
2023/05/04 11:35:02;;;;;;;3.73;1.93;;;20.60;99.90;;;;;;5011055;28;20674;-77
2023/05/04 11:37:28;;;;;;;2.20;1.73;;;20.70;99.90;;;;;;5024829;28;20677;-77
2023/05/04 11:39:55;;;;;;;3.67;1.80;;;20.70;99.90;;;;;;5010382;28;20205;-77
2023/05/04 11:42:21;;;;;;;2.77;1.70;;;20.80;99.90;;;;;;5010357;28;20184;-77
2023/05/04 11:44:47;;;;;;;2.23;1.27;;;20.80;99.90;;;;;;5010408;28;20200;-77
2023/05/04 11:47:13;;;;;;;3.07;1.80;;;20.90;79.60;;;;;;5010507;28;20189;-78
2023/05/04 11:49:39;;;;;;;2.17;1.50;;;21.10;37.80;;;;;;5010825;28;20230;-78
2023/05/04 11:52:08;;;;;;;2.70;1.73;;;21.00;1.00;;;;;;5025540;28;20181;-78
2023/05/04 11:54:35;;;;;;;2.57;1.80;;;21.00;1.00;;;;;;5025462;28;20326;-77
2023/05/04 11:57:02;;;;;;;5.83;1.90;;;21.00;64.00;;;;;;5025954;28;20201;-77
2023/05/04 11:59:28;;;;;;;2.87;1.87;;;21.10;6.20;;;;;;5010036;28;20234;-78
2023/05/04 12:01:55;;;;;;;2.83;1.90;;;21.20;28.60;;;;;;5025558;28;20185;-77
2023/05/04 12:04:20;;;;;;;8.33;2.20;;;21.20;17.30;;;;;;5009973;28;20253;-77
2023/05/04 12:06:46;;;;;;;4.33;1.93;;;21.20;3.00;;;;;;5010008;28;20596;-77
2023/05/04 12:09:11;;;;;;;2.20;2.00;;;21.30;1.00;;;;;;5010105;28;20173;-77
2023/05/04 12:11:39;;;;;;;4.27;2.03;;;21.30;1.00;;;;;;5009766;28;20197;-78
2023/05/04 12:14:08;;;;;;;3.40;1.90;;;21.30;1.00;;;;;;5010134;28;20177;-77
2023/05/04 12:16:35;;;;;;;4.10;1.80;;;21.30;1.00;;;;;;5025129;28;20191;-77
2023/05/04 12:19:09;;;;;;;5.93;1.83;;;21.40;1.00;;;;;;5025001;28;20212;-78
2023/05/04 12:21:35;;;;;;;2.47;1.70;;;21.50;9.50;;;;;;5024985;28;20179;-77
2023/05/04 12:24:02;;;;;;;2.90;1.50;;;21.60;37.40;;;;;;5009767;28;20275;-78
2023/05/04 12:26:28;;;;;;;3.80;1.60;;;21.70;1.00;;;;;;5009675;28;20173;-77
2023/05/04 12:28:55;;;;;;;4.90;1.67;;;21.70;1.00;;;;;;5009681;28;20633;-77
2023/05/04 12:31:21;;;;;;;2.87;1.60;;;21.60;1.00;;;;;;5009861;28;20169;-77
2023/05/04 12:33:49;;;;;;;3.37;1.73;;;21.80;1.00;;;;;;5025218;28;20216;-77
2023/05/04 12:36:15;;;;;;;2.40;1.60;;;21.80;1.00;;;;;;5024843;28;20189;-78
2023/05/04 12:38:41;;;;;;;2.30;1.70;;;21.80;1.00;;;;;;5009549;28;20201;-77
2023/05/04 12:41:09;;;;;;;4.53;1.60;;;21.80;1.00;;;;;;5010034;28;20180;-78
2023/05/04 12:43:35;;;;;;;8.60;1.60;;;21.90;1.00;;;;;;5009787;28;20207;-78
2023/05/04 12:46:01;;;;;;;4.00;1.60;;;22.00;1.00;;;;;;5009449;28;20173;-77
2023/05/04 12:48:27;;;;;;;5.63;1.70;;;22.10;1.00;;;;;;5024938;28;20204;-78
2023/05/04 12:50:53;;;;;;;3.57;1.77;;;22.20;1.00;;;;;;5013137;28;20198;-78
2023/05/04 12:53:21;;;;;;;2.87;1.20;;;22.20;1.00;;;;;;5013104;28;20248;-78
2023/05/04 12:55:46;;;;;;;5.13;1.40;;;22.20;1.00;;;;;;5028321;28;20173;-77